Time;durP1;ratioP1;P1;durP2;ratioP2;P2;SDS_P1;SDS_P2;PMS_P1;PMS_P2;Temp;Humidity;BMP_temperature;BMP_pressure;BME280_temperature;BME280_humidity;BME280_pressure;Samples;Min_cycle;Max_cycle;Signal;HPM_P1;HPM_P2
2021/04/24 00:00:27;;;;;;;49.15;24.95;;;;;;;4.20;76.03;99756.84;4329951;82;21193;-86
2021/04/24 00:06:30;;;;;;;53.65;24.65;;;;;;;4.23;75.93;99757.02;4342052;82;21289;-86
2021/04/24 00:12:32;;;;;;;50.52;22.55;;;;;;;4.17;76.11;99746.08;4341841;82;21161;-88
2021/04/24 00:18:33;;;;;;;52.17;23.92;;;;;;;4.15;76.09;99742.87;4341551;82;21193;-86
2021/04/24 00:24:35;;;;;;;55.23;24.32;;;;;;;4.18;76.10;99742.83;4341637;82;21300;-85
2021/04/24 00:30:39;;;;;;;53.87;23.67;;;;;;;4.24;76.07;99738.30;4342186;82;21316;-85
2021/04/24 00:36:40;;;;;;;46.58;23.18;;;;;;;4.13;75.61;99730.77;4341439;82;21127;-87
2021/04/24 00:42:42;;;;;;;47.90;22.35;;;;;;;4.10;76.27;99732.75;4341261;82;21170;-88
2021/04/24 00:48:44;;;;;;;47.13;22.07;;;;;;;4.10;76.24;99730.83;4341724;82;21529;-87
2021/04/24 00:54:46;;;;;;;49.98;22.77;;;;;;;4.09;76.01;99728.43;4341330;82;21166;-87
2021/04/24 01:00:47;;;;;;;52.62;23.62;;;;;;;4.03;75.79;99733.75;4341203;82;21174;-87
2021/04/24 01:06:49;;;;;;;56.50;24.15;;;;;;;3.88;76.17;99728.77;4341259;82;21181;-86
2021/04/24 01:12:51;;;;;;;52.88;22.48;;;;;;;3.88;76.29;99732.84;4342010;82;21162;-86
2021/04/24 01:18:53;;;;;;;50.55;23.42;;;;;;;3.93;76.23;99724.00;4341266;82;21174;-86
2021/04/24 01:24:55;;;;;;;47.67;22.30;;;;;;;3.91;76.59;99725.44;4341213;82;21173;-88
2021/04/24 01:30:57;;;;;;;50.40;22.62;;;;;;;3.91;76.52;99721.38;4342164;82;21301;-87
2021/04/24 01:37:01;;;;;;;49.63;24.70;;;;;;;3.87;76.68;99721.19;4342186;82;21190;-86
2021/04/24 01:43:04;;;;;;;45.33;21.70;;;;;;;3.78;76.42;99720.38;4341641;82;21150;-86
2021/04/24 01:49:05;;;;;;;48.40;23.05;;;;;;;3.66;76.35;99720.17;4341320;82;21624;-86
2021/04/24 01:55:13;;;;;;;53.58;25.50;;;;;;;3.55;76.47;99703.14;4341298;82;21845;-87
2021/04/24 02:01:14;;;;;;;56.88;24.35;;;;;;;3.60;76.67;99700.30;4340202;81;21154;-88
2021/04/24 02:07:16;;;;;;;50.58;21.10;;;;;;;3.64;76.64;99693.14;4341760;82;21153;-88
2021/04/24 02:13:22;;;;;;;51.13;21.07;;;;;;;3.62;76.44;99689.39;4342161;82;21154;-87
2021/04/24 02:19:24;;;;;;;50.48;21.65;;;;;;;3.65;76.94;99694.76;4341001;82;21194;-86
2021/04/24 02:25:25;;;;;;;43.17;21.17;;;;;;;3.67;76.85;99689.81;4342060;82;21297;-88
2021/04/24 02:31:28;;;;;;;47.53;22.00;;;;;;;3.72;76.88;99680.20;4342107;82;21157;-87
2021/04/24 02:37:29;;;;;;;45.05;22.07;;;;;;;3.72;77.17;99677.49;4341378;82;21198;-86
2021/04/24 02:43:32;;;;;;;44.08;20.72;;;;;;;3.70;76.97;99670.23;4342110;82;21167;-87
2021/04/24 02:49:34;;;;;;;48.17;22.37;;;;;;;3.65;77.64;99650.09;4341269;82;21610;-86
2021/04/24 02:55:36;;;;;;;47.83;21.70;;;;;;;3.67;77.72;99648.65;4342149;82;21138;-87
2021/04/24 03:01:39;;;;;;;50.60;21.50;;;;;;;3.79;77.48;99646.70;4341672;82;21186;-87
2021/04/24 03:07:41;;;;;;;33.88;17.42;;;;;;;3.76;77.21;99650.05;4341610;82;21575;-86
2021/04/24 03:13:43;;;;;;;36.00;17.42;;;;;;;3.81;77.60;99664.77;4341526;82;21150;-86
2021/04/24 03:19:44;;;;;;;36.08;17.85;;;;;;;3.81;77.10;99678.31;4342349;82;21327;-87
2021/04/24 03:25:46;;;;;;;31.30;18.25;;;;;;;3.82;77.01;99671.22;4341249;82;21138;-86
2021/04/24 03:31:47;;;;;;;36.38;18.52;;;;;;;3.82;77.27;99669.09;4341341;82;21154;-87
2021/04/24 03:37:49;;;;;;;43.75;18.10;;;;;;;3.78;76.82;99679.75;4373299;81;21631;-88
2021/04/24 03:43:50;;;;;;;32.28;15.48;;;;;;;3.80;76.88;99695.14;4383518;81;21127;-86
2021/04/24 03:49:52;;;;;;;33.48;14.28;;;;;;;3.87;77.01;99697.39;4383515;81;21154;-87
2021/04/24 03:55:53;;;;;;;32.73;16.23;;;;;;;3.88;77.08;99693.02;4383307;81;21155;-87
2021/04/24 04:01:55;;;;;;;28.45;11.60;;;;;;;3.95;77.05;99701.47;4382068;81;21611;-88
2021/04/24 04:07:58;;;;;;;21.00;11.40;;;;;;;4.03;76.60;99716.14;4380378;81;21628;-86
2021/04/24 04:14:00;;;;;;;27.10;11.15;;;;;;;4.13;76.21;99709.09;4380472;81;21587;-87
2021/04/24 04:20:07;;;;;;;24.30;9.98;;;;;;;4.17;76.29;99726.30;4380951;81;21203;-86
2021/04/24 04:26:09;;;;;;;21.37;9.98;;;;;;;4.22;76.06;99717.48;4380509;81;21123;-87
2021/04/24 04:32:11;;;;;;;28.98;10.90;;;;;;;4.27;75.74;99739.58;4381520;81;21186;-86
2021/04/24 04:38:13;;;;;;;25.45;11.48;;;;;;;4.36;75.47;99743.09;4381055;81;21183;-87
2021/04/24 04:44:15;;;;;;;28.40;11.95;;;;;;;4.44;75.40;99745.03;4381331;81;21293;-86
2021/04/24 04:50:24;;;;;;;27.32;12.35;;;;;;;4.51;75.58;99740.73;4381126;81;21171;-86
2021/04/24 04:56:25;;;;;;;35.17;14.35;;;;;;;4.71;75.23;99740.69;4379992;81;21182;-87
2021/04/24 05:02:27;;;;;;;28.55;13.30;;;;;;;4.93;75.24;99745.95;4380028;81;21341;-88
2021/04/24 05:08:28;;;;;;;30.57;15.98;;;;;;;5.06;74.80;99755.05;4380643;81;21565;-88
2021/04/24 05:14:30;;;;;;;32.17;14.73;;;;;;;5.15;74.62;99755.84;4381111;81;21171;-87
2021/04/24 05:20:31;;;;;;;33.18;14.35;;;;;;;5.22;74.56;99756.13;4380651;81;21155;-88
2021/04/24 05:26:33;;;;;;;34.10;15.00;;;;;;;5.31;74.65;99733.87;4380685;81;21167;-88
2021/04/24 05:32:37;;;;;;;31.07;15.48;;;;;;;5.42;74.59;99738.62;4380627;81;21168;-87
2021/04/24 05:38:40;;;;;;;36.25;15.88;;;;;;;5.63;74.18;99740.89;4331678;80;21717;-88
2021/04/24 05:44:41;;;;;;;31.40;14.43;;;;;;;5.85;73.55;99754.83;4319080;82;21595;-88
2021/04/24 05:50:43;;;;;;;32.85;13.22;;;;;;;6.12;73.35;99752.47;4394346;81;21142;-88
2021/04/24 05:56:45;;;;;;;27.02;12.90;;;;;;;6.50;73.17;99753.78;4395145;80;21169;-87
2021/04/24 06:02:47;;;;;;;25.17;11.93;;;;;;;7.01;72.49;99749.89;4393203;80;21168;-86
2021/04/24 06:08:49;;;;;;;26.40;12.20;;;;;;;7.48;71.54;99754.75;4393531;80;21207;-88
2021/04/24 06:14:51;;;;;;;26.12;11.12;;;;;;;7.85;70.57;99755.61;4391881;81;21133;-88
2021/04/24 06:20:53;;;;;;;24.02;11.40;;;;;;;8.20;69.85;99759.53;4324032;82;21637;-88
2021/04/24 06:26:54;;;;;;;26.05;11.97;;;;;;;8.51;68.72;99761.70;4323908;82;21189;-87
2021/04/24 06:32:57;;;;;;;24.30;11.22;;;;;;;8.87;68.52;99755.62;4347597;82;21181;-89
2021/04/24 06:39:04;;;;;;;26.10;10.80;;;;;;;9.05;67.76;99756.14;4292916;82;21194;-91
2021/04/24 06:45:07;;;;;;;23.90;10.75;;;;;;;9.41;67.74;99768.30;4292393;82;21162;-91
2021/04/24 06:51:13;;;;;;;21.57;10.82;;;;;;;9.67;66.93;99761.78;4305177;83;21598;-92
2021/04/24 06:57:15;;;;;;;20.08;9.18;;;;;;;9.84;66.25;99765.55;4316871;83;21181;-92
2021/04/24 07:03:17;;;;;;;18.35;9.25;;;;;;;9.93;65.34;99773.02;4317644;82;21634;-93
2021/04/24 07:09:19;;;;;;;18.87;9.18;;;;;;;9.87;65.11;99753.91;4319697;80;21132;-91
2021/04/24 07:15:20;;;;;;;17.23;7.35;;;;;;;10.09;64.58;99752.53;4384942;81;21152;-90
2021/04/24 07:21:22;;;;;;;15.28;7.45;;;;;;;10.40;63.44;99756.05;4391163;81;21122;-90
2021/04/24 07:27:23;;;;;;;14.68;7.62;;;;;;;10.46;62.94;99744.27;4392484;80;21598;-89
2021/04/24 07:33:25;;;;;;;18.85;7.25;;;;;;;10.53;61.81;99740.31;4394733;80;21305;-91
2021/04/24 07:39:27;;;;;;;9.65;5.30;;;;;;;10.87;60.37;99743.61;4307457;82;21145;-91
2021/04/24 07:45:28;;;;;;;11.95;6.45;;;;;;;11.51;60.12;99753.36;4332151;81;21158;-90
2021/04/24 07:51:30;;;;;;;14.58;6.60;;;;;;;12.19;59.96;99752.88;4357270;81;21122;-91
2021/04/24 07:57:32;;;;;;;11.80;5.87;;;;;;;12.86;59.23;99753.11;4357316;81;21151;-87
2021/04/24 08:03:33;;;;;;;10.60;5.58;;;;;;;13.29;57.60;99751.14;4361486;81;21150;-92
2021/04/24 08:09:35;;;;;;;15.03;6.45;;;;;;;13.55;56.66;99740.84;4401336;81;21130;-91
2021/04/24 08:15:37;;;;;;;12.25;5.97;;;;;;;13.55;55.84;99737.29;4401150;81;21130;-91
2021/04/24 08:21:40;;;;;;;14.53;5.92;;;;;;;13.89;55.20;99734.11;4400911;81;21186;-91
2021/04/24 08:27:42;;;;;;;12.53;5.62;;;;;;;14.06;55.24;99727.20;4400440;81;21190;-92
2021/04/24 08:33:43;;;;;;;9.15;4.47;;;;;;;14.38;54.54;99728.27;4394248;81;21166;-91
2021/04/24 08:39:44;;;;;;;10.90;4.72;;;;;;;14.38;52.11;99731.59;4401188;81;21190;-91
2021/04/24 08:45:47;;;;;;;12.45;5.40;;;;;;;14.40;51.15;99727.30;4415321;80;21145;-90
2021/04/24 08:51:51;;;;;;;14.45;4.90;;;;;;;14.71;51.78;99732.81;4475030;79;21140;-92
2021/04/24 08:57:53;;;;;;;11.95;4.95;;;;;;;14.80;50.41;99726.39;4474580;80;21159;-92
2021/04/24 09:03:55;;;;;;;8.73;4.37;;;;;;;15.11;48.75;99729.90;4473946;79;21176;-91
2021/04/24 09:09:58;;;;;;;8.35;4.08;;;;;;;15.76;49.13;99726.39;4472787;80;21132;-91
2021/04/24 09:16:00;;;;;;;9.53;4.37;;;;;;;15.74;46.27;99719.08;4429384;79;21153;-93
2021/04/24 09:22:20;;;;;;;8.15;4.92;;;;;;;16.46;46.61;99719.53;4361249;81;21151;-92
2021/04/24 09:28:40;;;;;;;9.28;4.53;;;;;;;16.93;45.93;99708.57;4379792;81;21120;-90
2021/04/24 09:34:44;;;;;;;10.68;5.17;;;;;;;17.93;45.42;99698.78;4404353;80;21131;-91
2021/04/24 09:41:11;;;;;;;8.88;5.05;;;;;;;18.27;42.76;99705.84;4380946;80;21173;-90
2021/04/24 09:47:14;;;;;;;9.80;5.53;;;;;;;17.95;39.94;99692.83;4413315;80;21602;-91
2021/04/24 09:53:23;;;;;;;11.03;4.37;;;;;;;17.87;42.20;99685.80;4435912;80;21156;-92
2021/04/24 09:59:24;;;;;;;13.62;5.67;;;;;;;18.05;41.24;99685.84;4390675;81;21177;-92
2021/04/24 10:05:26;;;;;;;9.23;4.58;;;;;;;18.14;39.39;99671.51;4365234;81;21172;-89
2021/04/24 10:11:29;;;;;;;8.45;4.30;;;;;;;18.79;38.73;99675.46;4306680;83;21141;-89
2021/04/24 10:17:31;;;;;;;10.75;4.70;;;;;;;17.53;38.60;99677.30;4342837;81;21750;-90
2021/04/24 10:23:33;;;;;;;8.55;4.62;;;;;;;16.60;40.12;99679.44;4338408;81;21156;-90
2021/04/24 10:29:34;;;;;;;8.93;4.67;;;;;;;16.81;39.18;99668.33;4336609;82;21613;-92
2021/04/24 10:35:36;;;;;;;11.53;5.15;;;;;;;16.15;39.11;99662.89;4405987;80;21153;-93
2021/04/24 10:41:42;;;;;;;9.98;4.95;;;;;;;15.16;39.36;99672.39;4393502;81;21172;-88
2021/04/24 10:47:51;;;;;;;12.40;5.12;;;;;;;14.51;39.42;99648.86;4395062;81;21164;-93
2021/04/24 10:53:55;;;;;;;12.07;6.10;;;;;;;15.67;40.24;99650.08;4395136;79;21188;-91
2021/04/24 10:59:56;;;;;;;11.38;5.87;;;;;;;16.57;37.88;99645.69;4389151;81;21184;-92
2021/04/24 11:06:11;;;;;;;11.63;4.75;;;;;;;16.06;37.54;99634.31;4395390;81;21326;-91
2021/04/24 11:12:13;;;;;;;10.40;4.97;;;;;;;16.27;37.86;99638.41;4385142;81;21295;-91
2021/04/24 11:18:16;;;;;;;11.00;5.60;;;;;;;15.68;38.33;99641.41;4340156;82;21641;-90
2021/04/24 11:24:17;;;;;;;12.40;5.42;;;;;;;15.01;38.49;99646.53;4329381;81;21157;-90
2021/04/24 11:31:06;;;;;;;14.00;5.80;;;;;;;14.40;37.76;99639.16;4389051;81;21148;-90
2021/04/24 11:37:23;;;;;;;11.90;5.20;;;;;;;14.23;38.48;99631.55;4450145;80;21132;-89
2021/04/24 11:43:28;;;;;;;12.07;5.50;;;;;;;15.58;37.48;99628.37;4450021;79;21122;-92
2021/04/24 11:49:30;;;;;;;11.90;5.37;;;;;;;16.64;37.50;99624.15;4397157;81;21150;-90
2021/04/24 11:55:32;;;;;;;10.15;5.42;;;;;;;16.72;36.64;99613.27;4396893;81;21141;-91
2021/04/24 12:01:34;;;;;;;8.83;4.80;;;;;;;16.03;36.18;99617.15;4392609;81;21640;-91
2021/04/24 12:07:48;;;;;;;8.95;4.80;;;;;;;16.23;37.38;99609.22;4391868;81;21205;-92
2021/04/24 12:13:49;;;;;;;9.45;4.30;;;;;;;16.53;36.81;99605.43;4390878;81;21125;-92
2021/04/24 12:19:51;;;;;;;10.18;5.10;;;;;;;15.98;36.66;99612.02;4390027;81;21181;-88
2021/04/24 12:25:52;;;;;;;10.45;4.42;;;;;;;15.54;36.34;99596.44;4381256;81;21157;-90
2021/04/24 12:31:54;;;;;;;10.60;4.05;;;;;;;15.08;36.64;99596.95;4386296;81;21572;-88
2021/04/24 12:38:03;;;;;;;9.78;4.35;;;;;;;15.17;36.63;99590.45;4390034;81;21651;-92
2021/04/24 12:44:32;;;;;;;7.33;4.05;;;;;;;14.91;36.26;99583.29;4514517;79;23005;-91
2021/04/24 12:50:40;;;;;;;9.00;4.55;;;;;;;14.88;35.96;99581.89;4406754;80;21145;-90
2021/04/24 12:56:41;;;;;;;11.22;3.98;;;;;;;14.88;36.39;99575.80;4365176;80;21169;-90
2021/04/24 13:02:44;;;;;;;11.33;3.72;;;;;;;15.01;36.25;99563.83;4448451;80;21185;-90
2021/04/24 13:09:07;;;;;;;9.35;3.80;;;;;;;14.80;36.34;99558.27;4413382;80;21287;-89
2021/04/24 13:15:14;;;;;;;5.90;3.60;;;;;;;14.46;36.07;99553.61;4373646;81;21299;-90
2021/04/24 13:21:35;;;;;;;9.55;3.80;;;;;;;14.47;37.35;99548.89;4398096;80;21143;-90
2021/04/24 13:27:37;;;;;;;10.00;4.20;;;;;;;14.60;36.52;99545.39;4377662;81;21186;-92
2021/04/24 13:33:39;;;;;;;9.58;4.20;;;;;;;14.67;37.28;99534.41;4375340;81;21139;-93
2021/04/24 13:39:56;;;;;;;9.38;4.53;;;;;;;14.79;35.50;99526.36;4374849;81;21615;-92
2021/04/24 13:45:57;;;;;;;;;;;;;;;14.75;36.55;99527.72;4395561;81;21650;-93
2021/04/24 13:51:59;;;;;;;9.03;4.25;;;;;;;15.00;36.35;99525.81;4392302;80;20173;-90
2021/04/24 13:58:08;;;;;;;8.03;3.65;;;;;;;14.98;36.27;99519.12;4391142;81;21236;-92
2021/04/24 14:04:10;;;;;;;11.30;4.72;;;;;;;14.84;36.49;99515.76;4390665;81;21626;-91
2021/04/24 14:10:12;;;;;;;9.15;4.58;;;;;;;15.20;36.43;99509.70;4394434;80;21729;-90
2021/04/24 14:16:13;;;;;;;10.65;4.28;;;;;;;14.85;36.65;99511.02;4425087;80;21598;-90
2021/04/24 14:22:16;;;;;;;12.43;4.25;;;;;;;14.58;37.85;99507.79;4412129;80;21110;-91
2021/04/24 14:28:18;;;;;;;9.35;4.53;;;;;;;14.21;37.09;99509.98;4393874;80;21138;-91
2021/04/24 14:34:20;;;;;;;7.95;4.62;;;;;;;14.07;37.14;99504.41;4407509;80;21174;-90
2021/04/24 14:40:22;;;;;;;9.05;4.75;;;;;;;13.91;37.20;99497.05;4398577;80;21177;-90
2021/04/24 14:46:23;;;;;;;8.58;4.12;;;;;;;13.87;37.84;99495.67;4398917;80;21149;-90
2021/04/24 14:52:25;;;;;;;10.20;5.10;;;;;;;13.75;38.68;99494.59;4365126;80;21576;-90
2021/04/24 14:58:27;;;;;;;9.70;4.87;;;;;;;13.67;37.97;99487.45;4382929;80;21147;-91
2021/04/24 15:04:28;;;;;;;9.90;5.90;;;;;;;13.85;38.50;99482.08;4405739;80;21164;-90
2021/04/24 15:10:30;;;;;;;17.35;5.97;;;;;;;13.69;38.36;99471.37;4377841;80;21161;-88
2021/04/24 15:16:33;;;;;;;9.85;4.92;;;;;;;13.45;38.36;99475.34;4380971;80;21543;-90
2021/04/24 15:22:35;;;;;;;9.25;4.62;;;;;;;13.34;39.51;99470.34;4391385;80;21150;-90
2021/04/24 15:28:37;;;;;;;9.93;4.40;;;;;;;13.36;39.83;99474.88;4389673;80;21708;-91
2021/04/24 15:34:39;;;;;;;11.97;5.67;;;;;;;13.39;39.79;99475.50;4379140;80;21149;-90
2021/04/24 15:40:42;;;;;;;11.35;5.37;;;;;;;13.25;39.63;99472.64;4394211;80;21160;-91
2021/04/24 15:46:44;;;;;;;9.20;4.97;;;;;;;13.10;40.36;99465.42;4385251;80;21193;-88
2021/04/24 15:52:50;;;;;;;12.15;6.00;;;;;;;13.03;40.28;99464.78;4397211;80;21607;-89
2021/04/24 15:58:55;;;;;;;12.20;6.03;;;;;;;12.87;40.51;99464.80;4412681;80;21156;-90
2021/04/24 16:04:57;;;;;;;13.45;6.50;;;;;;;12.76;40.47;99459.80;4383130;80;21137;-91
2021/04/24 16:10:58;;;;;;;15.23;6.35;;;;;;;12.68;41.32;99450.70;4386594;80;21141;-89
2021/04/24 16:17:01;;;;;;;16.97;6.80;;;;;;;12.64;41.39;99449.28;4409893;80;21170;-90
2021/04/24 16:23:02;;;;;;;17.23;6.37;;;;;;;12.62;41.85;99445.34;4411884;80;21163;-91
2021/04/24 16:29:05;;;;;;;23.83;11.22;;;;;;;12.58;41.96;99446.67;4383356;80;21150;-91
2021/04/24 16:35:08;;;;;;;24.63;10.72;;;;;;;12.50;42.12;99440.10;4456947;80;21145;-91
2021/04/24 16:41:09;;;;;;;13.32;7.22;;;;;;;12.38;42.88;99439.00;4381158;80;21213;-90
2021/04/24 16:47:11;;;;;;;14.00;6.95;;;;;;;12.18;43.27;99437.00;4361578;81;21161;-92
2021/04/24 16:53:13;;;;;;;19.73;8.00;;;;;;;11.99;43.33;99438.56;4366320;81;21170;-92
2021/04/24 16:59:14;;;;;;;15.70;7.47;;;;;;;11.80;43.60;99441.45;4371186;81;21182;-89
2021/04/24 17:12:00;;;;;;;17.70;8.00;;;;;;;11.49;44.56;99452.73;4483013;77;22660;-91
2021/04/24 17:18:02;;;;;;;17.32;8.80;;;;;;;11.33;44.35;99446.61;4534957;78;21591;-91
2021/04/24 17:24:04;;;;;;;21.33;8.60;;;;;;;11.21;44.55;99449.56;4534716;78;21153;-89
2021/04/24 17:30:09;;;;;;;20.17;9.68;;;;;;;11.09;44.89;99447.01;4454194;78;21165;-90
2021/04/24 17:36:10;;;;;;;21.12;8.50;;;;;;;10.98;45.22;99444.10;4534581;78;21165;-89
2021/04/24 17:42:12;;;;;;;15.70;8.55;;;;;;;10.83;46.50;99442.86;4534590;78;21154;-90
2021/04/24 17:48:13;;;;;;;19.95;8.78;;;;;;;10.57;46.98;99440.06;4315012;81;21394;-89
2021/04/24 17:54:15;;;;;;;24.20;9.23;;;;;;;10.48;47.46;99438.12;4324077;82;21112;-91
2021/04/24 18:00:21;;;;;;;21.60;8.25;;;;;;;10.19;48.21;99442.84;4324248;82;21151;-91
2021/04/24 18:06:24;;;;;;;24.40;9.93;;;;;;;10.04;48.70;99444.47;4272161;82;21343;-90
2021/04/24 18:12:25;;;;;;;26.15;12.35;;;;;;;9.84;48.86;99440.72;4306052;82;21138;-90
2021/04/24 18:18:27;;;;;;;27.70;13.30;;;;;;;9.65;49.03;99440.13;4358145;80;21182;-91
2021/04/24 18:24:29;;;;;;;38.15;16.67;;;;;;;9.48;49.13;99441.34;4298111;83;21154;-91
2021/04/24 18:30:31;;;;;;;37.05;20.00;;;;;;;9.26;49.37;99437.91;4303240;82;21186;-92
2021/04/24 18:36:34;;;;;;;47.70;24.63;;;;;;;9.06;49.91;99439.00;4306824;82;21591;-89
2021/04/24 18:42:36;;;;;;;54.90;27.37;;;;;;;8.92;50.37;99441.95;4290140;83;21159;-89
2021/04/24 18:48:38;;;;;;;66.55;26.93;;;;;;;8.89;50.89;99439.92;4290173;83;21294;-90
2021/04/24 18:54:39;;;;;;;50.17;24.85;;;;;;;8.83;51.07;99442.11;4291108;83;21171;-91
2021/04/24 19:00:41;;;;;;;54.88;25.40;;;;;;;8.82;51.24;99443.27;4290573;83;21168;-90
2021/04/24 19:06:42;;;;;;;50.95;25.05;;;;;;;8.86;51.69;99445.53;4291367;83;21195;-89
2021/04/24 19:12:44;;;;;;;51.30;26.02;;;;;;;8.89;51.88;99444.02;4294614;83;21147;-90
2021/04/24 19:18:46;;;;;;;60.95;26.77;;;;;;;8.85;51.88;99441.76;4392445;81;21153;-90
2021/04/24 19:24:48;;;;;;;60.40;28.73;;;;;;;8.81;52.00;99449.08;4392474;80;21272;-90
2021/04/24 19:30:54;;;;;;;63.58;29.00;;;;;;;8.73;53.12;99455.50;4391420;80;21146;-91
2021/04/24 19:36:59;;;;;;;52.75;28.90;;;;;;;8.60;53.62;99447.16;4377397;81;21178;-89
2021/04/24 19:42:59;;;;;;;66.97;31.20;;;;;;;8.52;54.33;99451.64;4388554;80;21840;-89
2021/04/24 19:49:01;;;;;;;84.62;41.15;;;;;;;8.37;55.18;99459.24;4388886;80;21596;-91
2021/04/24 19:55:06;;;;;;;93.07;44.20;;;;;;;8.28;55.83;99457.25;4376665;81;21556;-89
2021/04/24 20:01:08;;;;;;;91.50;43.42;;;;;;;8.25;55.61;99451.13;4365145;81;21174;-90
2021/04/24 20:07:09;;;;;;;79.40;38.60;;;;;;;8.28;55.51;99460.53;4391510;80;21256;-89
2021/04/24 20:13:11;;;;;;;67.35;35.60;;;;;;;8.16;55.62;99459.98;4515429;78;21141;-89
2021/04/24 20:19:13;;;;;;;109.03;54.48;;;;;;;7.84;57.27;99455.01;4368856;81;21598;-91
2021/04/24 20:25:16;;;;;;;157.07;72.15;;;;;;;7.77;57.53;99450.70;4393300;81;21141;-89
2021/04/24 20:31:17;;;;;;;117.60;53.60;;;;;;;7.77;57.50;99451.26;4516504;78;21181;-90
2021/04/24 20:37:20;;;;;;;95.60;46.37;;;;;;;7.75;57.72;99457.64;4215762;84;21136;-90
2021/04/24 20:43:21;;;;;;;75.17;40.17;;;;;;;7.71;58.18;99454.00;4287497;83;21559;-89
2021/04/24 20:49:24;;;;;;;82.17;36.83;;;;;;;7.57;58.42;99449.50;4224074;84;21202;-88
2021/04/24 20:55:25;;;;;;;77.25;36.33;;;;;;;7.44;58.81;99456.90;4336241;82;21298;-89
2021/04/24 21:01:28;;;;;;;72.32;35.83;;;;;;;7.44;58.76;99448.73;4361851;82;21165;-89
2021/04/24 21:07:30;;;;;;;85.53;42.95;;;;;;;7.45;59.75;99455.78;4300242;81;21182;-89
2021/04/24 21:13:32;;;;;;;71.87;37.28;;;;;;;7.43;60.17;99451.23;4260533;84;21178;-90
2021/04/24 21:19:33;;;;;;;76.22;38.83;;;;;;;7.44;60.22;99446.56;4260401;83;21316;-90
2021/04/24 21:25:35;;;;;;;83.17;41.35;;;;;;;7.35;60.49;99442.63;4299376;83;21142;-91
2021/04/24 21:31:37;;;;;;;84.03;43.00;;;;;;;7.31;60.76;99438.98;4234361;83;21177;-90
2021/04/24 21:37:39;;;;;;;81.12;40.10;;;;;;;7.29;61.34;99437.74;4227223;84;21151;-90
2021/04/24 21:43:41;;;;;;;72.25;38.60;;;;;;;7.18;61.41;99437.42;4227579;84;21191;-90
2021/04/24 21:49:42;;;;;;;105.80;49.60;;;;;;;7.11;62.13;99444.58;4228673;84;21250;-91
2021/04/24 21:55:44;;;;;;;77.47;39.78;;;;;;;7.01;62.00;99442.30;4234435;83;21153;-90
2021/04/24 22:01:46;;;;;;;86.55;43.28;;;;;;;7.00;62.17;99444.80;4299387;82;21146;-90
2021/04/24 22:07:48;;;;;;;119.20;59.60;;;;;;;6.86;62.62;99442.40;4300101;82;21189;-89
2021/04/24 22:13:50;;;;;;;98.00;47.25;;;;;;;6.89;63.33;99445.03;4300244;82;21146;-90
2021/04/24 22:19:52;;;;;;;109.37;52.15;;;;;;;6.89;63.59;99442.30;4293999;83;21626;-90
2021/04/24 22:25:53;;;;;;;99.90;51.37;;;;;;;6.88;63.79;99437.98;4257416;83;21150;-89
2021/04/24 22:31:55;;;;;;;120.87;60.58;;;;;;;6.84;63.97;99439.25;4234230;83;21191;-89
2021/04/24 22:37:57;;;;;;;108.47;55.50;;;;;;;6.82;64.16;99438.78;4261880;83;21174;-91
2021/04/24 22:43:58;;;;;;;110.25;55.43;;;;;;;6.86;64.37;99429.37;4300264;82;21158;-89
2021/04/24 22:50:00;;;;;;;95.45;51.45;;;;;;;6.80;64.30;99423.91;4299979;83;21162;-89
2021/04/24 22:56:01;;;;;;;95.50;50.38;;;;;;;6.74;65.05;99431.52;4201522;84;21157;-88
2021/04/24 23:02:03;;;;;;;100.50;50.17;;;;;;;6.64;65.37;99426.50;4228450;84;21173;-89
2021/04/24 23:08:05;;;;;;;104.50;54.03;;;;;;;6.58;65.65;99429.81;4228955;84;21181;-91
2021/04/24 23:14:07;;;;;;;103.80;54.05;;;;;;;6.50;65.64;99434.19;4295003;83;21185;-89
2021/04/24 23:20:12;;;;;;;123.18;59.95;;;;;;;6.41;65.83;99429.42;4224850;84;21178;-89
2021/04/24 23:26:14;;;;;;;119.82;56.77;;;;;;;6.30;65.99;99430.42;4294235;82;21149;-90
2021/04/24 23:32:15;;;;;;;110.78;56.02;;;;;;;6.20;66.40;99428.70;4225734;84;21162;-89
2021/04/24 23:38:17;;;;;;;113.92;56.08;;;;;;;6.18;66.74;99426.32;4304333;82;21220;-88
2021/04/24 23:44:18;;;;;;;109.87;55.00;;;;;;;6.13;66.81;99418.92;4369906;81;21153;-89
2021/04/24 23:50:21;;;;;;;110.95;56.48;;;;;;;6.03;67.07;99408.46;4298247;83;21186;-88
2021/04/24 23:56:22;;;;;;;109.12;55.67;;;;;;;5.97;67.40;99410.61;4370004;82;21166;-90
